Time,TemperatureF,DewpointF,PressureIn,WindDirection,WindDirectionDegrees,WindSpeedMPH,WindSpeedGustMPH,Humidity,HourlyPrecipIn,Conditions,Clouds,dailyrainin,SolarRadiationWatts/m^2,SoftwareType,DateUTC
2013-10-23 00:00:00,44.7,42.2,29.94,NNW,348,0.0,0.0,91,0.00,,,0.01,0.0,WeatherDisplay:10.37,2013-10-23 07:00:00,
2013-10-23 00:05:00,44.5,41.7,29.93,NNW,348,0.0,0.0,90,0.00,RA,,0.00,0.0,WeatherDisplay:10.37,2013-10-23 07:05:00,
2013-10-23 00:10:00,44.5,42.0,29.93,NNW,348,0.0,0.0,91,0.00,,,0.00,0.0,WeatherDisplay:10.37,2013-10-23 07:10:00,
2013-10-23 00:15:00,44.4,41.9,29.93,NNW,348,0.0,0.0,91,0.00,,,0.00,0.0,WeatherDisplay:10.37,2013-10-23 07:15:00,
2013-10-23 00:20:00,44.1,41.4,29.93,NNW,348,0.0,0.0,90,0.00,,,0.00,0.0,WeatherDisplay:10.37,2013-10-23 07:20:00,
2013-10-23 00:25:00,43.7,41.0,29.93,NNW,348,0.0,0.0,90,0.00,,,0.00,0.0,WeatherDisplay:10.37,2013-10-23 07:25:00,
2013-10-23 00:30:00,43.4,40.7,29.93,NNW,348,0.0,0.0,90,0.00,,,0.00,0.0,WeatherDisplay:10.37,2013-10-23 07:30:00,
2013-10-23 00:35:00,43.2,40.8,29.93,NNW,348,0.0,0.0,91,0.00,,,0.00,0.0,WeatherDisplay:10.37,2013-10-23 07:35:00,
2013-10-23 00:40:00,42.9,40.2,29.93,NNW,348,0.0,0.0,90,0.00,,,0.00,0.0,WeatherDisplay:10.37,2013-10-23 07:40:00,
2013-10-23 00:45:00,42.9,40.5,29.93,NNW,348,0.0,0.0,91,0.00,,,0.00,0.0,WeatherDisplay:10.37,2013-10-23 07:45:00,
2013-10-23 00:50:00,43.2,40.8,29.93,NNW,348,0.0,0.0,91,0.00,,,0.00,0.0,WeatherDisplay:10.37,2013-10-23 07:50:00,
2013-10-23 00:55:00,43.2,40.8,29.93,NNW,348,0.0,0.0,91,0.00,,,0.00,0.0,WeatherDisplay:10.37,2013-10-23 07:55:00,
2013-10-23 01:00:00,43.1,40.7,29.93,NNW,348,0.0,0.0,91,0.00,,,0.00,0.0,WeatherDisplay:10.37,2013-10-23 08:00:00,
2013-10-23 01:05:00,42.8,40.4,29.93,NNW,348,0.0,0.0,91,0.00,,,0.00,0.0,WeatherDisplay:10.37,2013-10-23 08:05:00,
2013-10-23 01:10:00,43.1,40.9,29.93,NNW,348,0.0,0.0,92,0.00,,,0.00,0.0,WeatherDisplay:10.37,2013-10-23 08:10:00,
2013-10-23 01:15:00,43.7,41.8,29.93,NNW,348,0.0,0.0,93,0.00,,,0.00,0.0,WeatherDisplay:10.37,2013-10-23 08:15:00,
2013-10-23 01:20:00,44.0,42.1,29.93,NNW,348,0.0,0.0,93,0.00,,,0.00,0.0,WeatherDisplay:10.37,2013-10-23 08:20:00,
2013-10-23 01:25:00,44.4,42.5,29.93,NNW,348,0.0,0.0,93,0.00,,,0.00,0.0,WeatherDisplay:10.37,2013-10-23 08:25:00,
2013-10-23 01:30:00,44.4,42.5,29.93,NNW,348,0.0,0.0,93,0.00,,,0.00,0.0,WeatherDisplay:10.37,2013-10-23 08:30:00,
2013-10-23 01:35:00,44.2,42.3,29.93,NNW,348,0.0,0.0,93,0.00,,,0.00,0.0,WeatherDisplay:10.37,2013-10-23 08:35:00,
2013-10-23 01:40:00,43.8,41.9,29.93,NNW,348,0.0,0.0,93,0.00,,,0.00,0.0,WeatherDisplay:10.37,2013-10-23 08:40:00,
2013-10-23 01:45:00,43.4,41.5,29.93,NNW,348,0.0,0.0,93,0.00,,,0.00,0.0,WeatherDisplay:10.37,2013-10-23 08:45:00,
2013-10-23 01:50:00,42.9,41.0,29.93,NNW,348,0.0,0.0,93,0.00,,,0.00,0.0,WeatherDisplay:10.37,2013-10-23 08:50:00,
2013-10-23 01:55:00,42.8,40.9,29.93,NNW,348,0.0,0.0,93,0.00,,,0.00,0.0,WeatherDisplay:10.37,2013-10-23 08:55:00,
2013-10-23 02:00:00,42.8,40.9,29.93,NNW,348,0.0,0.0,93,0.00,,,0.00,0.0,WeatherDisplay:10.37,2013-10-23 09:00:00,
2013-10-23 02:05:00,42.9,41.0,29.93,NNW,348,0.0,0.0,93,0.00,,,0.00,0.0,WeatherDisplay:10.37,2013-10-23 09:05:00,
2013-10-23 02:10:00,42.6,40.7,29.93,NNW,348,0.0,0.0,93,0.00,,,0.00,0.0,WeatherDisplay:10.37,2013-10-23 09:10:00,
2013-10-23 02:15:00,42.3,40.4,29.94,NNW,348,0.0,0.0,93,0.00,,,0.00,0.0,WeatherDisplay:10.37,2013-10-23 09:15:00,
2013-10-23 02:20:00,42.1,40.2,29.94,NNW,348,0.0,0.0,93,0.00,,,0.00,0.0,WeatherDisplay:10.37,2013-10-23 09:20:00,
2013-10-23 02:25:00,42.3,40.4,29.94,NNW,348,0.0,0.0,93,0.00,,,0.00,0.0,WeatherDisplay:10.37,2013-10-23 09:25:00,
2013-10-23 02:30:00,42.3,40.4,29.94,NNW,348,0.0,0.0,93,0.00,,,0.00,0.0,WeatherDisplay:10.37,2013-10-23 09:30:00,
2013-10-23 02:35:00,42.1,40.2,29.94,NNW,348,0.0,0.0,93,0.00,,,0.00,0.0,WeatherDisplay:10.37,2013-10-23 09:35:00,
2013-10-23 02:40:00,41.9,40.0,29.94,NNW,346,0.0,0.0,93,0.00,,,0.00,0.0,WeatherDisplay:10.37,2013-10-23 09:40:00,
2013-10-23 02:45:00,41.9,40.3,29.94,NNW,347,0.0,0.0,94,0.00,,,0.00,0.0,WeatherDisplay:10.37,2013-10-23 09:45:00,
2013-10-23 02:50:00,41.9,40.3,29.94,NNW,347,0.0,0.0,94,0.00,,,0.00,0.0,WeatherDisplay:10.37,2013-10-23 09:50:00,
2013-10-23 02:55:00,41.9,40.0,29.94,NNW,347,0.0,0.0,93,0.00,,,0.00,0.0,WeatherDisplay:10.37,2013-10-23 09:55:00,
2013-10-23 03:00:00,41.8,39.9,29.94,NNW,347,0.0,0.0,93,0.00,,,0.00,0.0,WeatherDisplay:10.37,2013-10-23 10:00:00,
2013-10-23 03:05:00,41.6,39.7,29.94,NNW,347,0.0,0.0,93,0.00,,,0.00,0.0,WeatherDisplay:10.37,2013-10-23 10:05:00,
2013-10-23 03:10:00,41.3,39.4,29.94,NNW,347,0.0,0.0,93,0.00,,,0.00,0.0,WeatherDisplay:10.37,2013-10-23 10:10:00,
2013-10-23 03:15:00,41.5,39.9,29.94,NNW,347,0.0,0.0,94,0.00,,,0.00,0.0,WeatherDisplay:10.37,2013-10-23 10:15:00,
2013-10-23 03:20:00,41.6,40.0,29.94,NNW,347,0.0,0.0,94,0.00,,,0.00,0.0,WeatherDisplay:10.37,2013-10-23 10:20:00,
2013-10-23 03:25:00,41.3,39.4,29.94,NNW,347,0.0,0.0,93,0.00,,,0.00,0.0,WeatherDisplay:10.37,2013-10-23 10:25:00,
2013-10-23 03:30:00,41.1,39.2,29.93,NNW,347,0.0,0.0,93,0.00,,,0.00,0.0,WeatherDisplay:10.37,2013-10-23 10:30:00,
2013-10-23 03:35:00,40.8,38.9,29.93,NNW,347,0.0,0.0,93,0.00,,,0.00,0.0,WeatherDisplay:10.37,2013-10-23 10:35:00,
2013-10-23 03:40:00,40.8,38.9,29.93,NNW,347,0.0,0.0,93,0.00,,,0.00,0.0,WeatherDisplay:10.37,2013-10-23 10:40:00,
2013-10-23 03:45:00,40.6,38.7,29.93,NNW,347,0.0,0.0,93,0.00,,,0.00,0.0,WeatherDisplay:10.37,2013-10-23 10:45:00,
2013-10-23 03:50:00,40.5,38.6,29.93,NNW,347,0.0,0.0,93,0.00,,,0.00,0.0,WeatherDisplay:10.37,2013-10-23 10:50:00,
2013-10-23 03:55:00,40.6,39.0,29.93,NNW,347,0.0,0.0,94,0.00,,,0.00,0.0,WeatherDisplay:10.37,2013-10-23 10:55:00,
2013-10-23 04:00:00,40.5,38.9,29.93,NNW,347,0.0,0.0,94,0.00,,,0.00,0.0,WeatherDisplay:10.37,2013-10-23 11:00:00,
2013-10-23 04:05:00,40.6,39.0,29.93,NNW,346,0.1,0.0,94,0.00,,,0.00,0.0,WeatherDisplay:10.37,2013-10-23 11:05:00,
2013-10-23 04:10:00,40.9,39.3,29.93,WNW,294,0.2,1.2,94,0.00,,,0.00,0.0,WeatherDisplay:10.37,2013-10-23 11:10:00,
2013-10-23 04:15:00,41.2,39.6,29.93,WNW,294,0.1,0.0,94,0.00,,,0.00,0.0,WeatherDisplay:10.37,2013-10-23 11:15:00,
2013-10-23 04:20:00,41.3,39.7,29.93,WNW,293,0.0,0.0,94,0.00,,,0.00,0.0,WeatherDisplay:10.37,2013-10-23 11:20:00,
2013-10-23 04:25:00,41.5,39.9,29.93,WNW,282,0.0,0.0,94,0.00,,,0.00,0.0,WeatherDisplay:10.37,2013-10-23 11:25:00,
2013-10-23 04:30:00,41.9,40.6,29.93,WNW,282,0.0,0.0,95,0.00,,,0.00,0.0,WeatherDisplay:10.37,2013-10-23 11:30:00,
2013-10-23 04:35:00,42.2,40.9,29.94,WNW,282,0.0,0.0,95,0.00,,,0.00,0.0,WeatherDisplay:10.37,2013-10-23 11:35:00,
2013-10-23 04:40:00,42.3,41.0,29.94,WNW,282,0.0,0.0,95,0.00,,,0.00,0.0,WeatherDisplay:10.37,2013-10-23 11:40:00,
2013-10-23 04:45:00,42.8,41.5,29.94,WNW,282,0.0,0.0,95,0.00,,,0.00,0.0,WeatherDisplay:10.37,2013-10-23 11:45:00,
2013-10-23 04:50:00,43.1,41.8,29.94,WNW,282,0.0,0.0,95,0.00,,,0.00,0.0,WeatherDisplay:10.37,2013-10-23 11:50:00,
2013-10-23 04:55:00,43.4,42.1,29.94,WNW,282,0.0,0.0,95,0.00,,,0.00,0.0,WeatherDisplay:10.37,2013-10-23 11:55:00,
2013-10-23 05:00:00,43.5,42.2,29.94,WNW,282,0.0,0.0,95,0.00,,,0.00,0.0,WeatherDisplay:10.37,2013-10-23 12:00:00,
2013-10-23 05:05:00,43.5,42.2,29.94,WNW,282,0.0,0.0,95,0.00,,,0.00,0.0,WeatherDisplay:10.37,2013-10-23 12:05:00,
2013-10-23 05:10:00,43.4,42.1,29.94,WNW,282,0.0,0.0,95,0.00,,,0.00,0.0,WeatherDisplay:10.37,2013-10-23 12:10:00,
2013-10-23 05:15:00,43.2,41.9,29.94,WNW,282,0.0,0.0,95,0.00,,,0.00,0.0,WeatherDisplay:10.37,2013-10-23 12:15:00,
2013-10-23 05:20:00,43.2,41.9,29.94,WNW,282,0.0,0.0,95,0.00,,,0.00,0.0,WeatherDisplay:10.37,2013-10-23 12:20:00,
2013-10-23 05:25:00,43.2,41.9,29.94,WNW,282,0.0,0.0,95,0.00,,,0.00,0.0,WeatherDisplay:10.37,2013-10-23 12:25:00,
2013-10-23 05:30:00,43.2,41.9,29.94,WNW,282,0.0,0.0,95,0.00,,,0.00,0.0,WeatherDisplay:10.37,2013-10-23 12:30:00,
2013-10-23 05:35:00,43.1,41.8,29.94,WNW,282,0.0,0.0,95,0.00,,,0.00,0.0,WeatherDisplay:10.37,2013-10-23 12:35:00,
2013-10-23 05:40:00,43.1,41.8,29.94,WNW,282,0.0,0.0,95,0.00,,,0.00,0.0,WeatherDisplay:10.37,2013-10-23 12:40:00,
2013-10-23 05:45:00,43.1,41.8,29.94,WNW,282,0.0,0.0,95,0.00,,,0.00,0.0,WeatherDisplay:10.37,2013-10-23 12:45:00,
2013-10-23 05:50:00,43.2,41.9,29.94,WNW,282,0.0,0.0,95,0.00,,,0.00,0.0,WeatherDisplay:10.37,2013-10-23 12:50:00,
2013-10-23 05:55:00,43.2,41.9,29.94,WNW,282,0.0,0.0,95,0.00,,,0.00,0.0,WeatherDisplay:10.37,2013-10-23 12:55:00,
2013-10-23 06:00:00,43.2,41.9,29.94,WNW,282,0.0,0.0,95,0.00,,,0.00,0.0,WeatherDisplay:10.37,2013-10-23 13:00:00,
2013-10-23 06:05:00,43.2,41.9,29.94,WNW,282,0.0,0.0,95,0.00,,,0.00,0.0,WeatherDisplay:10.37,2013-10-23 13:05:00,
2013-10-23 06:10:00,43.1,41.8,29.94,WNW,282,0.0,0.0,95,0.00,,,0.00,0.0,WeatherDisplay:10.37,2013-10-23 13:10:00,
2013-10-23 06:15:00,43.2,41.9,29.94,WNW,282,0.0,0.0,95,0.00,,,0.00,0.0,WeatherDisplay:10.37,2013-10-23 13:15:00,
2013-10-23 06:20:00,43.2,41.9,29.94,WNW,282,0.0,0.0,95,0.00,,,0.00,0.0,WeatherDisplay:10.37,2013-10-23 13:20:00,
2013-10-23 06:25:00,43.2,41.9,29.94,WNW,282,0.0,0.0,95,0.00,,,0.00,0.0,WeatherDisplay:10.37,2013-10-23 13:25:00,
2013-10-23 06:30:00,43.1,41.8,29.94,WNW,282,0.0,0.0,95,0.00,,,0.00,0.0,WeatherDisplay:10.37,2013-10-23 13:30:00,
2013-10-23 06:35:00,43.1,41.8,29.94,WNW,282,0.0,0.0,95,0.00,,,0.00,0.0,WeatherDisplay:10.37,2013-10-23 13:35:00,
2013-10-23 06:40:00,43.2,41.9,29.94,WNW,282,0.0,0.0,95,0.00,,,0.00,0.0,WeatherDisplay:10.37,2013-10-23 13:40:00,
2013-10-23 06:45:00,43.2,41.9,29.94,WNW,282,0.0,0.0,95,0.00,,,0.00,0.0,WeatherDisplay:10.37,2013-10-23 13:45:00,
2013-10-23 06:50:00,43.5,42.2,29.94,WNW,282,0.0,0.0,95,0.00,,,0.00,0.0,WeatherDisplay:10.37,2013-10-23 13:50:00,
2013-10-23 06:55:00,43.5,42.2,29.94,WNW,282,0.0,0.0,95,0.00,,,0.00,0.0,WeatherDisplay:10.37,2013-10-23 13:55:00,
2013-10-23 07:00:00,43.5,42.2,29.94,WNW,282,0.0,0.0,95,0.00,,,0.00,0.0,WeatherDisplay:10.37,2013-10-23 14:00:00,
2013-10-23 07:05:00,43.4,42.1,29.95,WNW,282,0.0,0.0,95,0.00,,,0.00,0.0,WeatherDisplay:10.37,2013-10-23 14:05:00,
2013-10-23 07:10:00,43.4,42.1,29.95,WNW,282,0.0,0.0,95,0.00,,,0.00,0.0,WeatherDisplay:10.37,2013-10-23 14:10:00,
2013-10-23 07:15:00,43.5,42.2,29.95,WNW,282,0.0,0.0,95,0.00,,,0.00,0.0,WeatherDisplay:10.37,2013-10-23 14:15:00,
2013-10-23 07:20:00,43.4,42.1,29.95,WNW,282,0.0,1.2,95,0.00,,,0.00,0.0,WeatherDisplay:10.37,2013-10-23 14:20:00,
2013-10-23 07:25:00,43.4,42.1,29.95,WNW,282,0.0,0.0,95,0.00,,,0.00,0.0,WeatherDisplay:10.37,2013-10-23 14:25:00,
2013-10-23 07:30:00,43.4,42.1,29.95,WNW,282,0.0,0.0,95,0.00,,,0.00,0.0,WeatherDisplay:10.37,2013-10-23 14:30:00,
2013-10-23 07:35:00,43.5,42.4,29.95,WNW,282,0.0,0.0,96,0.00,,,0.00,0.0,WeatherDisplay:10.37,2013-10-23 14:35:00,
2013-10-23 07:40:00,43.5,42.4,29.95,WNW,282,0.0,0.0,96,0.01,RA,,0.01,0.0,WeatherDisplay:10.37,2013-10-23 14:40:00,
2013-10-23 07:45:00,43.7,42.6,29.95,WNW,282,0.0,0.0,96,0.01,RA,,0.01,0.0,WeatherDisplay:10.37,2013-10-23 14:45:00,
2013-10-23 07:50:00,43.7,42.6,29.95,NW,324,0.0,0.0,96,0.01,,,0.01,0.0,WeatherDisplay:10.37,2013-10-23 14:50:00,
2013-10-23 07:55:00,44.0,42.9,29.95,NW,325,0.0,0.0,96,0.01,,,0.01,0.0,WeatherDisplay:10.37,2013-10-23 14:55:00,
2013-10-23 08:00:00,44.2,43.1,29.95,NNW,338,0.0,0.0,96,0.01,,,0.01,0.0,WeatherDisplay:10.37,2013-10-23 15:00:00,
2013-10-23 08:05:00,44.5,43.4,29.95,NNW,338,0.0,1.2,96,0.01,,,0.01,0.0,WeatherDisplay:10.37,2013-10-23 15:05:00,
2013-10-23 08:10:00,44.4,43.3,29.95,NNW,338,0.1,0.0,96,0.01,,,0.01,0.0,WeatherDisplay:10.37,2013-10-23 15:10:00,
2013-10-23 08:15:00,44.2,43.1,29.95,NNW,338,0.1,1.2,96,0.01,,,0.01,0.0,WeatherDisplay:10.37,2013-10-23 15:15:00,
2013-10-23 08:21:00,44.1,43.0,29.95,NNW,338,0.0,0.0,96,0.01,,,0.01,0.0,WeatherDisplay:10.37,2013-10-23 15:21:00,
2013-10-23 08:26:00,44.2,43.1,29.95,NNW,338,0.0,0.0,96,0.01,,,0.01,0.0,WeatherDisplay:10.37,2013-10-23 15:26:00,
2013-10-23 08:31:00,44.4,43.3,29.95,NNW,338,0.0,0.0,96,0.01,,,0.01,0.0,WeatherDisplay:10.37,2013-10-23 15:31:00,
2013-10-23 08:36:00,44.5,43.4,29.95,NNW,338,0.0,0.0,96,0.01,,,0.01,0.0,WeatherDisplay:10.37,2013-10-23 15:36:00,
2013-10-23 08:41:00,44.7,43.6,29.95,NNW,338,0.0,0.0,96,0.00,,,0.01,0.0,WeatherDisplay:10.37,2013-10-23 15:41:00,
2013-10-23 08:46:00,45.0,43.9,29.96,NNW,338,0.0,0.0,96,0.00,,,0.01,0.0,WeatherDisplay:10.37,2013-10-23 15:46:00,
2013-10-23 08:51:00,45.0,43.9,29.96,NNW,338,0.0,0.0,96,0.00,,,0.01,0.0,WeatherDisplay:10.37,2013-10-23 15:51:00,
2013-10-23 08:56:00,45.1,44.0,29.96,NNW,338,0.0,0.0,96,0.00,,,0.01,0.0,WeatherDisplay:10.37,2013-10-23 15:56:00,
2013-10-23 09:01:00,45.3,44.2,29.96,NNW,338,0.0,0.0,96,0.00,OVC,,0.01,0.0,WeatherDisplay:10.37,2013-10-23 16:01:00,
2013-10-23 09:06:00,45.6,44.5,29.96,NNW,338,0.0,0.0,96,0.00,OVC,,0.01,0.0,WeatherDisplay:10.37,2013-10-23 16:06:00,
2013-10-23 09:11:00,45.9,44.8,29.96,NNW,338,0.0,0.0,96,0.00,OVC,,0.01,0.0,WeatherDisplay:10.37,2013-10-23 16:11:00,
2013-10-23 09:16:00,46.2,45.1,29.96,NNW,338,0.0,0.0,96,0.00,OVC,,0.01,0.0,WeatherDisplay:10.37,2013-10-23 16:16:00,
2013-10-23 09:21:00,46.5,45.4,29.96,NNW,338,0.0,0.0,96,0.00,OVC,,0.01,0.0,WeatherDisplay:10.37,2013-10-23 16:21:00,
2013-10-23 09:26:00,46.9,45.8,29.96,NNW,338,0.0,0.0,96,0.00,OVC,,0.01,0.0,WeatherDisplay:10.37,2013-10-23 16:26:00,
2013-10-23 09:31:00,47.2,46.4,29.96,NNW,338,0.0,0.0,97,0.00,OVC,,0.01,0.0,WeatherDisplay:10.37,2013-10-23 16:31:00,
2013-10-23 09:36:00,47.5,46.4,29.96,NNW,338,0.0,0.0,96,0.00,OVC,,0.01,0.0,WeatherDisplay:10.37,2013-10-23 16:36:00,
2013-10-23 09:41:00,47.5,46.4,29.96,NNW,338,0.0,0.0,96,0.00,OVC,,0.01,0.0,WeatherDisplay:10.37,2013-10-23 16:41:00,
2013-10-23 09:46:00,47.4,46.3,29.96,NNW,338,0.0,0.0,96,0.00,OVC,,0.01,0.0,WeatherDisplay:10.37,2013-10-23 16:46:00,
2013-10-23 09:51:00,47.5,46.4,29.96,NNW,338,0.0,0.0,96,0.00,OVC,,0.01,0.0,WeatherDisplay:10.37,2013-10-23 16:51:00,
2013-10-23 09:56:00,47.6,46.5,29.96,NNW,338,0.0,0.0,96,0.00,OVC,,0.01,0.0,WeatherDisplay:10.37,2013-10-23 16:56:00,
2013-10-23 10:01:00,47.6,46.5,29.96,NNW,338,0.0,0.0,96,0.00,OVC,,0.01,0.0,WeatherDisplay:10.37,2013-10-23 17:01:00,
2013-10-23 10:06:00,47.8,46.7,29.96,NNW,338,0.0,0.0,96,0.00,OVC,,0.01,0.0,WeatherDisplay:10.37,2013-10-23 17:06:00,
2013-10-23 10:11:00,48.1,47.0,29.96,NNW,338,0.0,0.0,96,0.00,OVC,,0.01,0.0,WeatherDisplay:10.37,2013-10-23 17:11:00,
2013-10-23 10:16:00,48.2,47.1,29.96,NNW,338,0.0,0.0,96,0.00,OVC,,0.01,0.0,WeatherDisplay:10.37,2013-10-23 17:16:00,
2013-10-23 10:21:00,48.2,47.1,29.96,NNW,338,0.0,0.0,96,0.00,OVC,,0.01,0.0,WeatherDisplay:10.37,2013-10-23 17:21:00,
2013-10-23 10:26:00,48.4,47.3,29.96,NNW,338,0.0,0.0,96,0.00,OVC,,0.01,0.0,WeatherDisplay:10.37,2013-10-23 17:26:00,
2013-10-23 10:31:00,48.7,47.6,29.96,NNW,338,0.0,0.0,96,0.00,OVC,,0.01,0.0,WeatherDisplay:10.37,2013-10-23 17:31:00,
2013-10-23 10:36:00,48.8,47.7,29.96,NNW,338,0.1,0.0,96,0.00,OVC,,0.01,0.0,WeatherDisplay:10.37,2013-10-23 17:36:00,
2013-10-23 10:41:00,49.0,47.9,29.96,NNW,338,0.1,1.2,96,0.00,OVC,,0.01,0.0,WeatherDisplay:10.37,2013-10-23 17:41:00,
2013-10-23 10:46:00,49.1,48.0,29.96,NNW,338,0.0,0.0,96,0.00,OVC,,0.01,0.0,WeatherDisplay:10.37,2013-10-23 17:46:00,
2013-10-23 10:51:00,49.1,48.0,29.96,West,266,0.0,0.0,96,0.00,OVC,,0.01,0.0,WeatherDisplay:10.37,2013-10-23 17:51:00,
2013-10-23 10:56:00,49.3,48.2,29.96,West,267,0.0,0.0,96,0.00,OVC,,0.01,0.0,WeatherDisplay:10.37,2013-10-23 17:56:00,
2013-10-23 11:01:00,49.3,48.2,29.96,West,271,0.0,0.0,96,0.00,OVC,,0.01,0.0,WeatherDisplay:10.37,2013-10-23 18:01:00,
2013-10-23 11:06:00,49.4,48.3,29.96,West,271,0.0,0.0,96,0.00,OVC,,0.01,0.0,WeatherDisplay:10.37,2013-10-23 18:06:00,
2013-10-23 11:11:00,49.6,48.5,29.95,West,271,0.0,0.0,96,0.00,OVC,,0.01,0.0,WeatherDisplay:10.37,2013-10-23 18:11:00,
2013-10-23 11:16:00,50.2,49.1,29.95,West,271,0.0,1.2,96,0.00,OVC,,0.01,0.0,WeatherDisplay:10.37,2013-10-23 18:16:00,
2013-10-23 11:21:00,50.5,49.4,29.95,North,5,0.0,1.2,96,0.00,OVC,,0.01,0.0,WeatherDisplay:10.37,2013-10-23 18:21:00,
2013-10-23 11:26:00,50.9,49.8,29.95,North,5,0.0,1.2,96,0.00,OVC,,0.01,0.0,WeatherDisplay:10.37,2013-10-23 18:26:00,
2013-10-23 11:31:00,51.8,50.7,29.95,NNW,346,0.0,0.0,96,0.00,OVC,,0.01,0.0,WeatherDisplay:10.37,2013-10-23 18:31:00,
2013-10-23 11:36:00,52.7,51.0,29.95,NW,307,0.2,2.3,94,0.00,OVC,,0.01,0.0,WeatherDisplay:10.37,2013-10-23 18:36:00,
2013-10-23 11:41:00,53.6,51.6,29.95,NW,313,0.1,1.2,93,0.00,OVC,,0.01,0.0,WeatherDisplay:10.37,2013-10-23 18:41:00,
2013-10-23 11:46:00,54.5,51.0,29.95,NNW,332,0.1,1.2,88,0.00,OVC,,0.01,0.0,WeatherDisplay:10.37,2013-10-23 18:46:00,
2013-10-23 11:51:00,55.6,50.2,29.95,NW,311,0.5,1.2,82,0.00,OVC,,0.01,0.0,WeatherDisplay:10.37,2013-10-23 18:51:00,
2013-10-23 11:56:00,56.9,50.5,29.95,NNW,333,0.5,1.2,79,0.00,OVC,,0.01,0.0,WeatherDisplay:10.37,2013-10-23 18:56:00,
2013-10-23 12:01:00,57.9,50.4,29.95,NW,326,0.7,1.2,76,0.00,OVC,,0.01,0.0,WeatherDisplay:10.37,2013-10-23 19:01:00,
2013-10-23 12:06:00,59.2,50.2,29.94,NW,322,0.2,1.2,72,0.00,OVC,,0.01,0.0,WeatherDisplay:10.37,2013-10-23 19:06:00,
2013-10-23 12:11:00,60.3,50.5,29.94,NNW,327,0.0,0.0,70,0.00,OVC,,0.01,0.0,WeatherDisplay:10.37,2013-10-23 19:11:00,
2013-10-23 12:16:00,61.1,50.1,29.94,NNW,327,0.3,2.3,67,0.00,OVC,,0.01,0.0,WeatherDisplay:10.37,2013-10-23 19:16:00,
2013-10-23 12:21:00,61.9,50.0,29.94,NNW,338,0.0,1.2,65,0.00,OVC,,0.01,0.0,WeatherDisplay:10.37,2013-10-23 19:21:00,
2013-10-23 12:26:00,62.2,49.9,29.94,NNW,338,0.6,1.2,64,0.00,OVC,,0.01,0.0,WeatherDisplay:10.37,2013-10-23 19:26:00,
2013-10-23 12:31:00,62.7,49.9,29.93,NNW,338,0.1,0.0,63,0.00,OVC,,0.01,0.0,WeatherDisplay:10.37,2013-10-23 19:31:00,
2013-10-23 12:36:00,63.3,50.1,29.93,NW,307,1.8,3.5,62,0.00,OVC,,0.01,0.0,WeatherDisplay:10.37,2013-10-23 19:36:00,
2013-10-23 12:41:00,63.5,50.2,29.93,NNW,346,0.3,1.2,62,0.00,OVC,,0.01,0.0,WeatherDisplay:10.37,2013-10-23 19:41:00,
2013-10-23 12:46:00,63.6,49.9,29.93,NW,311,0.2,1.2,61,0.00,OVC,,0.01,0.0,WeatherDisplay:10.37,2013-10-23 19:46:00,
2013-10-23 12:51:00,64.1,50.4,29.93,NNW,339,0.2,1.2,61,0.00,OVC,,0.01,0.0,WeatherDisplay:10.37,2013-10-23 19:51:00,
2013-10-23 12:56:00,64.6,50.4,29.93,NNW,346,0.4,3.5,60,0.00,OVC,,0.01,0.0,WeatherDisplay:10.37,2013-10-23 19:56:00,
2013-10-23 13:01:00,64.6,49.9,29.92,WNW,290,1.2,3.5,59,0.00,OVC,,0.01,0.0,WeatherDisplay:10.37,2013-10-23 20:01:00,
2013-10-23 13:06:00,64.6,49.9,29.92,WNW,291,0.3,3.0,59,0.00,OVC,,0.01,0.0,WeatherDisplay:10.37,2013-10-23 20:06:00,
2013-10-23 13:11:00,64.8,50.1,29.92,NNW,344,0.3,2.3,59,0.00,OVC,,0.01,0.0,WeatherDisplay:10.37,2013-10-23 20:11:00,
2013-10-23 13:16:00,64.9,50.2,29.91,NNW,330,0.5,3.5,59,0.00,OVC,,0.01,0.0,WeatherDisplay:10.37,2013-10-23 20:16:00,
2013-10-23 13:21:00,65.1,50.0,29.91,North,355,0.3,2.3,58,0.00,OVC,,0.01,0.0,WeatherDisplay:10.37,2013-10-23 20:21:00,
2013-10-23 13:26:00,65.1,50.0,29.91,West,271,1.9,3.0,58,0.00,OVC,,0.01,0.0,WeatherDisplay:10.37,2013-10-23 20:26:00,
2013-10-23 13:31:00,64.9,50.2,29.91,NW,321,0.9,2.3,59,0.00,OVC,,0.01,0.0,WeatherDisplay:10.37,2013-10-23 20:31:00,
2013-10-23 13:36:00,64.9,50.7,29.90,NNW,331,0.5,3.5,60,0.00,OVC,,0.01,0.0,WeatherDisplay:10.37,2013-10-23 20:36:00,
2013-10-23 13:41:00,65.3,50.6,29.90,NNW,331,0.0,0.0,59,0.00,OVC,,0.01,0.0,WeatherDisplay:10.37,2013-10-23 20:41:00,
2013-10-23 13:46:00,65.8,50.6,29.90,NNW,331,0.3,1.2,58,0.00,OVC,,0.01,0.0,WeatherDisplay:10.37,2013-10-23 20:46:00,
2013-10-23 13:51:00,66.4,50.7,29.90,NNW,342,0.6,2.3,57,0.00,OVC,,0.01,0.0,WeatherDisplay:10.37,2013-10-23 20:51:00,
2013-10-23 13:56:00,67.3,51.1,29.90,NNW,342,0.0,0.0,56,0.00,OVC,,0.01,0.0,WeatherDisplay:10.37,2013-10-23 20:56:00,
2013-10-23 14:01:00,67.8,51.0,29.89,NNW,342,0.8,1.2,55,0.00,OVC,,0.01,0.0,WeatherDisplay:10.37,2013-10-23 21:01:00,
2013-10-23 14:06:00,68.4,51.6,29.89,NNW,342,0.0,0.0,55,0.00,OVC,,0.01,0.0,WeatherDisplay:10.37,2013-10-23 21:06:00,
2013-10-23 14:11:00,68.9,51.6,29.89,NW,323,0.1,2.3,54,0.00,OVC,,0.01,0.0,WeatherDisplay:10.37,2013-10-23 21:11:00,
2013-10-23 14:16:00,68.9,51.6,29.89,ENE,59,0.5,0.0,54,0.00,OVC,,0.01,631.0,WeatherDisplay:10.37,2013-10-23 21:16:00,
2013-10-23 14:21:00,63.0,53.4,29.88,ENE,59,0.2,1.2,71,0.00,CLR,,0.01,626.0,WeatherDisplay:10.37,2013-10-23 21:21:00,
2013-10-23 14:26:00,63.0,53.1,29.88,ENE,59,1.3,3.5,70,0.00,CLR,,0.01,619.0,WeatherDisplay:10.37,2013-10-23 21:26:00,
2013-10-23 14:31:00,62.5,53.0,29.88,ENE,59,1.8,3.5,71,0.00,CLR,,0.01,612.0,WeatherDisplay:10.37,2013-10-23 21:31:00,
2013-10-23 14:36:00,63.4,53.4,29.88,ENE,59,1.6,3.5,70,0.00,CLR,,0.01,603.0,WeatherDisplay:10.37,2013-10-23 21:36:00,
2013-10-23 14:41:00,63.7,52.9,29.88,ENE,59,2.2,3.5,68,0.00,CLR,,0.01,596.0,WeatherDisplay:10.37,2013-10-23 21:41:00,
2013-10-23 14:46:00,63.9,53.1,29.88,ENE,59,0.8,2.3,68,0.00,CLR,,0.01,585.0,WeatherDisplay:10.37,2013-10-23 21:46:00,
2013-10-23 14:51:00,63.9,53.1,29.88,NE,53,5.1,8.1,68,0.00,CLR,,0.01,575.0,WeatherDisplay:10.37,2013-10-23 21:51:00,
2013-10-23 14:56:00,63.4,52.7,29.88,NE,45,2.2,5.8,68,0.00,CLR,,0.01,568.0,WeatherDisplay:10.37,2013-10-23 21:56:00,
2013-10-23 15:01:00,63.7,52.9,29.87,NE,41,5.2,9.2,68,0.00,CLR,,0.01,555.0,WeatherDisplay:10.37,2013-10-23 22:01:00,
2013-10-23 15:06:00,65.3,53.2,29.87,NE,41,0.0,3.5,65,0.00,CLR,,0.01,545.0,WeatherDisplay:10.37,2013-10-23 22:06:00,
2013-10-23 15:11:00,65.7,52.8,29.87,NE,41,1.6,3.5,63,0.00,CLR,,0.01,534.0,WeatherDisplay:10.37,2013-10-23 22:11:00,
2013-10-23 15:16:00,66.0,53.0,29.87,NE,41,1.3,2.3,63,0.00,CLR,,0.01,520.0,WeatherDisplay:10.37,2013-10-23 22:16:00,
2013-10-23 15:21:00,66.5,53.1,29.87,NE,41,0.4,2.3,62,0.00,CLR,,0.01,508.0,WeatherDisplay:10.37,2013-10-23 22:21:00,
2013-10-23 15:26:00,66.9,53.0,29.87,NE,41,0.4,3.5,61,0.00,CLR,,0.01,499.0,WeatherDisplay:10.37,2013-10-23 22:26:00,
2013-10-23 15:31:00,66.3,52.4,29.87,NE,41,2.4,3.5,61,0.00,CLR,,0.01,483.0,WeatherDisplay:10.37,2013-10-23 22:31:00,
2013-10-23 15:36:00,66.3,52.9,29.87,NE,41,3.1,3.5,62,0.00,CLR,,0.01,469.0,WeatherDisplay:10.37,2013-10-23 22:36:00,
2013-10-23 15:41:00,65.9,52.5,29.87,NE,41,1.5,3.5,62,0.00,CLR,,0.01,455.0,WeatherDisplay:10.37,2013-10-23 22:41:00,
2013-10-23 15:46:00,65.7,52.3,29.87,NE,41,0.4,2.3,62,0.00,CLR,,0.01,439.0,WeatherDisplay:10.37,2013-10-23 22:46:00,
2013-10-23 15:51:00,65.7,52.3,29.87,NE,41,2.0,3.5,62,0.00,SCT,,0.01,149.0,WeatherDisplay:10.37,2013-10-23 22:51:00,
2013-10-23 15:56:00,65.5,52.6,29.86,NE,41,0.8,3.5,63,0.00,BKN,,0.01,51.0,WeatherDisplay:10.37,2013-10-23 22:56:00,
2013-10-23 16:01:00,65.0,52.1,29.87,NE,41,1.0,0.0,63,0.00,BKN,,0.01,63.0,WeatherDisplay:10.37,2013-10-23 23:01:00,
2013-10-23 16:06:00,64.4,52.0,29.87,NE,41,1.5,3.5,64,0.00,BKN,,0.01,42.0,WeatherDisplay:10.37,2013-10-23 23:06:00,
2013-10-23 16:11:00,64.2,52.2,29.86,NE,41,0.4,2.3,65,0.00,BKN,,0.01,56.0,WeatherDisplay:10.37,2013-10-23 23:11:00,
2013-10-23 16:16:00,64.1,52.1,29.87,NE,41,0.8,2.3,65,0.00,BKN,,0.01,40.0,WeatherDisplay:10.37,2013-10-23 23:16:00,
2013-10-23 16:21:00,63.8,51.8,29.86,NE,41,2.1,3.5,65,0.00,BKN,,0.01,40.0,WeatherDisplay:10.37,2013-10-23 23:21:00,
2013-10-23 16:26:00,63.6,52.0,29.87,NE,41,1.0,3.5,66,0.00,BKN,,0.01,49.0,WeatherDisplay:10.37,2013-10-23 23:26:00,
2013-10-23 16:31:00,63.6,52.0,29.87,NE,41,0.1,3.5,66,0.00,BKN,,0.01,39.0,WeatherDisplay:10.37,2013-10-23 23:31:00,
2013-10-23 16:36:00,63.2,51.6,29.87,NE,41,1.4,3.5,66,0.00,BKN,,0.01,95.0,WeatherDisplay:10.37,2013-10-23 23:36:00,
2013-10-23 16:41:00,62.8,51.7,29.86,NE,41,1.9,3.5,67,0.00,BKN,,0.01,40.0,WeatherDisplay:10.37,2013-10-23 23:41:00,
2013-10-23 16:46:00,62.5,51.8,29.87,NE,41,0.3,2.3,68,0.00,BKN,,0.01,88.0,WeatherDisplay:10.37,2013-10-23 23:46:00,
2013-10-23 16:51:00,62.3,51.6,29.87,NE,41,0.0,1.2,68,0.00,BKN,,0.01,33.0,WeatherDisplay:10.37,2013-10-23 23:51:00,
2013-10-23 16:56:00,62.1,51.4,29.87,NE,41,0.0,1.2,68,0.00,BKN,,0.01,32.0,WeatherDisplay:10.37,2013-10-23 23:56:00,
2013-10-23 17:01:00,62.0,51.7,29.87,NE,41,0.0,0.0,69,0.00,BKN,,0.01,30.0,WeatherDisplay:10.37,2013-10-24 00:01:00,
2013-10-23 17:06:00,61.9,51.6,29.87,NE,41,0.3,1.2,69,0.00,BKN,,0.01,30.0,WeatherDisplay:10.37,2013-10-24 00:06:00,
2013-10-23 17:11:00,61.5,51.2,29.87,NE,41,0.0,0.0,69,0.00,BKN,,0.01,28.0,WeatherDisplay:10.37,2013-10-24 00:11:00,
2013-10-23 17:16:00,61.1,51.2,29.87,NE,41,0.0,0.0,70,0.00,BKN,,0.01,28.0,WeatherDisplay:10.37,2013-10-24 00:16:00,
2013-10-23 17:21:00,60.8,51.3,29.87,NE,41,0.0,0.0,71,0.00,BKN,,0.01,26.0,WeatherDisplay:10.37,2013-10-24 00:21:00,
2013-10-23 17:26:00,60.4,51.3,29.87,NE,41,0.0,1.0,72,0.00,BKN,,0.01,25.0,WeatherDisplay:10.37,2013-10-24 00:26:00,
2013-10-23 17:31:00,60.0,51.3,29.87,NE,41,0.0,0.0,73,0.00,BKN,,0.01,23.0,WeatherDisplay:10.37,2013-10-24 00:31:00,
2013-10-23 17:36:00,59.7,51.4,29.87,NE,41,0.0,0.0,74,0.00,BKN,,0.01,19.0,WeatherDisplay:10.37,2013-10-24 00:36:00,
2013-10-23 17:41:00,59.3,51.0,29.87,NE,41,0.0,1.2,74,0.00,BKN,,0.01,18.0,WeatherDisplay:10.37,2013-10-24 00:41:00,
2013-10-23 17:46:00,58.8,50.9,29.87,NE,41,0.0,0.0,75,0.00,BKN,,0.01,16.0,WeatherDisplay:10.37,2013-10-24 00:46:00,
2013-10-23 17:51:00,58.4,50.9,29.87,NE,41,0.0,0.0,76,0.00,BKN,,0.01,14.0,WeatherDisplay:10.37,2013-10-24 00:51:00,
2013-10-23 17:56:00,58.1,50.6,29.87,NE,41,0.0,0.0,76,0.00,BKN,,0.01,14.0,WeatherDisplay:10.37,2013-10-24 00:56:00,
2013-10-23 18:01:00,58.1,50.6,29.88,NE,41,0.0,0.0,76,0.00,BKN,,0.01,14.0,WeatherDisplay:10.37,2013-10-24 01:01:00,
2013-10-23 18:06:00,59.8,52.2,29.88,WSW,252,0.0,0.0,76,0.00,,,0.01,0.0,WeatherDisplay:10.37,2013-10-24 01:06:00,
2013-10-23 18:11:00,59.0,48.8,29.88,WSW,252,0.0,0.0,69,0.00,,,0.01,0.0,WeatherDisplay:10.37,2013-10-24 01:11:00,
2013-10-23 18:16:00,58.5,48.7,29.88,WSW,252,0.0,0.0,70,0.00,,,0.01,0.0,WeatherDisplay:10.37,2013-10-24 01:16:00,
2013-10-23 18:21:00,58.2,48.8,29.88,WSW,252,0.0,0.0,71,0.00,,,0.01,0.0,WeatherDisplay:10.37,2013-10-24 01:21:00,
2013-10-23 18:26:00,57.8,48.8,29.88,WSW,252,0.0,0.0,72,0.00,,,0.01,0.0,WeatherDisplay:10.37,2013-10-24 01:26:00,
2013-10-23 18:31:00,57.3,48.3,29.88,WSW,252,0.0,0.0,72,0.00,,,0.01,0.0,WeatherDisplay:10.37,2013-10-24 01:31:00,
2013-10-23 18:36:00,56.9,48.3,29.88,WSW,252,0.0,0.0,73,0.00,,,0.01,0.0,WeatherDisplay:10.37,2013-10-24 01:36:00,
2013-10-23 18:41:00,56.3,48.1,29.88,WSW,252,0.0,0.0,74,0.00,,,0.01,0.0,WeatherDisplay:10.37,2013-10-24 01:41:00,
2013-10-23 18:46:00,56.0,48.2,29.88,WSW,252,0.0,0.0,75,0.00,,,0.01,0.0,WeatherDisplay:10.37,2013-10-24 01:46:00,
2013-10-23 18:51:00,55.5,47.7,29.89,WSW,252,0.0,0.0,75,0.00,,,0.01,0.0,WeatherDisplay:10.37,2013-10-24 01:51:00,
2013-10-23 18:56:00,54.6,47.2,29.89,WSW,252,0.0,0.0,76,0.00,,,0.01,0.0,WeatherDisplay:10.37,2013-10-24 01:56:00,
2013-10-23 19:01:00,54.2,47.5,29.89,WSW,252,0.0,0.0,78,0.00,,,0.01,0.0,WeatherDisplay:10.37,2013-10-24 02:01:00,
2013-10-23 19:06:00,53.9,47.5,29.89,WSW,252,0.0,0.0,79,0.00,,,0.01,0.0,WeatherDisplay:10.37,2013-10-24 02:06:00,
2013-10-23 19:11:00,53.6,47.2,29.89,WSW,252,0.0,0.0,79,0.00,,,0.01,0.0,WeatherDisplay:10.37,2013-10-24 02:11:00,
2013-10-23 19:16:00,53.3,47.0,29.90,WSW,252,0.0,0.0,79,0.00,,,0.01,0.0,WeatherDisplay:10.37,2013-10-24 02:16:00,
2013-10-23 19:21:00,53.0,47.0,29.90,WSW,252,0.0,0.0,80,0.00,,,0.01,0.0,WeatherDisplay:10.37,2013-10-24 02:21:00,
2013-10-23 19:26:00,52.7,47.0,29.90,WSW,252,0.0,0.0,81,0.00,,,0.01,0.0,WeatherDisplay:10.37,2013-10-24 02:26:00,
2013-10-23 19:31:00,52.5,46.8,29.90,WSW,252,0.0,0.0,81,0.00,,,0.01,0.0,WeatherDisplay:10.37,2013-10-24 02:31:00,
2013-10-23 19:36:00,52.2,46.9,29.90,WSW,252,0.0,0.0,82,0.00,,,0.01,0.0,WeatherDisplay:10.37,2013-10-24 02:36:00,
2013-10-23 19:41:00,51.9,46.6,29.91,WSW,252,0.0,0.0,82,0.00,,,0.01,0.0,WeatherDisplay:10.37,2013-10-24 02:41:00,
2013-10-23 19:46:00,51.6,46.3,29.91,WSW,252,0.0,0.0,82,0.00,,,0.01,0.0,WeatherDisplay:10.37,2013-10-24 02:46:00,
2013-10-23 19:51:00,51.5,46.2,29.91,WSW,252,0.0,0.0,82,0.00,,,0.01,0.0,WeatherDisplay:10.37,2013-10-24 02:51:00,
2013-10-23 19:56:00,51.2,45.9,29.91,WSW,252,0.0,0.0,82,0.00,,,0.01,0.0,WeatherDisplay:10.37,2013-10-24 02:56:00,
2013-10-23 20:01:00,50.9,45.6,29.91,WSW,252,0.0,0.0,82,0.00,,,0.01,0.0,WeatherDisplay:10.37,2013-10-24 03:01:00,
2013-10-23 20:06:00,50.8,45.2,29.91,WSW,252,0.0,0.0,81,0.00,,,0.01,0.0,WeatherDisplay:10.37,2013-10-24 03:06:00,
2013-10-23 20:11:00,50.6,45.0,29.91,WSW,252,0.0,0.0,81,0.00,,,0.01,0.0,WeatherDisplay:10.37,2013-10-24 03:11:00,
2013-10-23 20:16:00,50.5,45.2,29.92,WSW,252,0.0,0.0,82,0.00,,,0.01,0.0,WeatherDisplay:10.37,2013-10-24 03:16:00,
2013-10-23 20:21:00,49.9,44.6,29.92,WSW,252,0.0,0.0,82,0.00,,,0.01,0.0,WeatherDisplay:10.37,2013-10-24 03:21:00,
2013-10-23 20:26:00,49.6,44.3,29.92,WSW,249,0.0,0.0,82,0.00,,,0.01,0.0,WeatherDisplay:10.37,2013-10-24 03:26:00,
2013-10-23 20:31:00,49.3,44.0,29.92,SW,221,0.0,0.0,82,0.00,,,0.01,0.0,WeatherDisplay:10.37,2013-10-24 03:31:00,
2013-10-23 20:36:00,49.1,44.2,29.92,SSW,204,0.0,0.0,83,0.00,,,0.01,0.0,WeatherDisplay:10.37,2013-10-24 03:36:00,
2013-10-23 20:41:00,49.0,44.1,29.92,SSW,204,0.0,0.0,83,0.00,,,0.01,0.0,WeatherDisplay:10.37,2013-10-24 03:41:00,
2013-10-23 20:46:00,48.8,43.9,29.92,SSW,204,0.0,0.0,83,0.00,,,0.01,0.0,WeatherDisplay:10.37,2013-10-24 03:46:00,
2013-10-23 20:51:00,48.5,43.9,29.92,SSW,204,0.0,0.0,84,0.00,,,0.01,0.0,WeatherDisplay:10.37,2013-10-24 03:51:00,
2013-10-23 20:56:00,48.2,43.6,29.92,SSW,204,0.0,0.0,84,0.00,,,0.01,0.0,WeatherDisplay:10.37,2013-10-24 03:56:00,
2013-10-23 21:01:00,48.1,43.8,29.92,SSW,204,0.0,0.0,85,0.00,,,0.01,0.0,WeatherDisplay:10.37,2013-10-24 04:01:00,
2013-10-23 21:02:00,47.9,43.6,29.92,SSW,204,0.0,0.0,85,0.00,,,0.01,0.0,WeatherDisplay:10.37,2013-10-24 04:02:00,
2013-10-23 21:03:00,47.9,43.6,29.92,SSW,204,0.0,0.0,85,0.00,,,0.01,0.0,WeatherDisplay:10.37,2013-10-24 04:03:00,
2013-10-23 21:04:00,47.9,43.6,29.92,SSW,204,0.0,0.0,85,0.00,,,0.01,0.0,WeatherDisplay:10.37,2013-10-24 04:04:00,
2013-10-23 21:05:00,47.9,43.6,29.92,SSW,204,0.0,0.0,85,0.00,,,0.01,0.0,WeatherDisplay:10.37,2013-10-24 04:05:00,
2013-10-23 21:06:00,47.8,43.5,29.92,SSW,204,0.0,0.0,85,0.00,,,0.01,0.0,WeatherDisplay:10.37,2013-10-24 04:06:00,
2013-10-23 21:11:00,47.5,43.2,29.92,SSW,203,0.0,0.0,85,0.00,,,0.01,0.0,WeatherDisplay:10.37,2013-10-24 04:11:00,
2013-10-23 21:16:00,47.4,43.1,29.93,SSW,204,0.1,1.0,85,0.00,,,0.01,0.0,WeatherDisplay:10.37,2013-10-24 04:16:00,
2013-10-23 21:21:00,47.1,43.1,29.93,SSW,204,0.0,0.0,86,0.00,,,0.01,0.0,WeatherDisplay:10.37,2013-10-24 04:21:00,
2013-10-23 21:26:00,46.9,42.9,29.93,SSW,204,0.0,0.0,86,0.00,,,0.01,0.0,WeatherDisplay:10.37,2013-10-24 04:26:00,
2013-10-23 21:31:00,46.8,42.8,29.93,SSW,204,0.0,0.0,86,0.00,,,0.01,0.0,WeatherDisplay:10.37,2013-10-24 04:31:00,
2013-10-23 21:36:00,46.6,42.9,29.93,SSW,204,0.0,0.0,87,0.00,,,0.01,0.0,WeatherDisplay:10.37,2013-10-24 04:36:00,
2013-10-23 21:41:00,46.5,42.8,29.93,SSW,204,0.0,0.0,87,0.00,,,0.01,0.0,WeatherDisplay:10.37,2013-10-24 04:41:00,
2013-10-23 21:46:00,46.5,43.1,29.93,SSW,204,0.0,0.0,88,0.00,,,0.01,0.0,WeatherDisplay:10.37,2013-10-24 04:46:00,
2013-10-23 21:51:00,46.5,43.1,29.94,SSW,203,0.0,0.0,88,0.00,,,0.01,0.0,WeatherDisplay:10.37,2013-10-24 04:51:00,
2013-10-23 21:56:00,46.3,42.9,29.94,SSW,204,0.0,0.0,88,0.00,,,0.01,0.0,WeatherDisplay:10.37,2013-10-24 04:56:00,
2013-10-23 22:01:00,46.3,42.9,29.94,SSW,204,0.0,0.0,88,0.00,,,0.01,0.0,WeatherDisplay:10.37,2013-10-24 05:01:00,
2013-10-23 22:06:00,46.2,42.8,29.94,SSW,203,0.0,0.0,88,0.00,,,0.01,0.0,WeatherDisplay:10.37,2013-10-24 05:06:00,
2013-10-23 22:11:00,46.0,42.6,29.94,SSW,204,0.0,0.0,88,0.00,,,0.01,0.0,WeatherDisplay:10.37,2013-10-24 05:11:00,
2013-10-23 22:16:00,45.9,42.5,29.94,SSW,204,0.0,0.0,88,0.00,,,0.01,0.0,WeatherDisplay:10.37,2013-10-24 05:16:00,
2013-10-23 22:21:00,45.7,42.3,29.94,SSW,204,0.0,0.0,88,0.00,,,0.01,0.0,WeatherDisplay:10.37,2013-10-24 05:21:00,
2013-10-23 22:26:00,45.4,41.8,29.94,SSW,204,0.0,0.0,87,0.00,,,0.01,0.0,WeatherDisplay:10.37,2013-10-24 05:26:00,
2013-10-23 22:31:00,45.1,41.5,29.95,SSW,204,0.0,0.0,87,0.00,,,0.01,0.0,WeatherDisplay:10.37,2013-10-24 05:31:00,
2013-10-23 22:36:00,45.0,41.7,29.95,SSW,204,0.0,0.0,88,0.00,,,0.01,0.0,WeatherDisplay:10.37,2013-10-24 05:36:00,
2013-10-23 22:41:00,45.0,41.7,29.95,SSW,204,0.0,0.0,88,0.00,,,0.01,0.0,WeatherDisplay:10.37,2013-10-24 05:41:00,
2013-10-23 22:46:00,44.8,41.5,29.95,SSW,204,0.0,0.0,88,0.00,,,0.01,0.0,WeatherDisplay:10.37,2013-10-24 05:46:00,
2013-10-23 22:51:00,44.8,41.5,29.95,SSW,204,0.0,0.0,88,0.00,,,0.01,0.0,WeatherDisplay:10.37,2013-10-24 05:51:00,
2013-10-23 22:56:00,44.5,41.2,29.95,SSW,203,0.0,0.0,88,0.00,,,0.01,0.0,WeatherDisplay:10.37,2013-10-24 05:56:00,
2013-10-23 23:01:00,44.4,41.1,29.95,SSW,204,0.0,0.0,88,0.00,,,0.01,0.0,WeatherDisplay:10.37,2013-10-24 06:01:00,
2013-10-23 23:06:00,44.2,40.9,29.96,SSW,204,0.0,0.0,88,0.00,,,0.01,0.0,WeatherDisplay:10.37,2013-10-24 06:06:00,
2013-10-23 23:11:00,44.5,41.7,29.96,SSW,204,0.0,0.0,90,0.00,,,0.01,0.0,WeatherDisplay:10.37,2013-10-24 06:11:00,
2013-10-23 23:16:00,44.7,41.9,29.96,SSW,203,0.0,0.0,90,0.00,,,0.01,0.0,WeatherDisplay:10.37,2013-10-24 06:16:00,
2013-10-23 23:21:00,44.8,42.3,29.96,SSW,204,0.0,0.0,91,0.00,,,0.01,0.0,WeatherDisplay:10.37,2013-10-24 06:21:00,
2013-10-23 23:26:00,44.8,42.3,29.96,SSW,204,0.0,0.0,91,0.00,,,0.01,0.0,WeatherDisplay:10.37,2013-10-24 06:26:00,
2013-10-23 23:31:00,44.8,42.3,29.96,SSW,204,0.0,0.0,91,0.00,,,0.01,0.0,WeatherDisplay:10.37,2013-10-24 06:31:00,
2013-10-23 23:36:00,44.8,42.3,29.97,SSW,204,0.0,0.0,91,0.00,,,0.01,0.0,WeatherDisplay:10.37,2013-10-24 06:36:00,
2013-10-23 23:41:00,44.8,42.3,29.97,SSW,204,0.0,0.0,91,0.00,,,0.01,0.0,WeatherDisplay:10.37,2013-10-24 06:41:00,
2013-10-23 23:46:00,44.7,42.2,29.97,SSW,204,0.0,0.0,91,0.00,,,0.01,0.0,WeatherDisplay:10.37,2013-10-24 06:46:00,
2013-10-23 23:51:00,44.7,42.2,29.97,SSW,204,0.0,0.0,91,0.00,,,0.01,0.0,WeatherDisplay:10.37,2013-10-24 06:51:00,
2013-10-23 23:56:00,44.8,42.6,29.97,SSW,204,0.0,0.0,92,0.00,,,0.01,0.0,WeatherDisplay:10.37,2013-10-24 06:56:00,